createdAt,value
2022-10-21T00:00:43.473Z,97732.53
2022-10-21T00:03:13.380Z,97728.78
2022-10-21T00:05:43.716Z,97729.06
2022-10-21T00:08:16.965Z,97723.50
2022-10-21T00:10:47.193Z,97725.75
2022-10-21T00:13:17.282Z,97717.16
2022-10-21T00:15:47.423Z,97726.03
2022-10-21T00:18:17.560Z,97718.91
2022-10-21T00:20:47.688Z,97712.81
2022-10-21T00:23:20.365Z,97719.34
2022-10-21T00:25:50.665Z,97717.28
2022-10-21T00:28:20.751Z,97703.41
2022-10-21T00:30:50.771Z,97710.47
2022-10-21T00:33:20.829Z,97712.47
2022-10-21T00:35:55.030Z,97716.69
2022-10-21T00:38:28.285Z,97723.72
2022-10-21T00:40:58.658Z,97725.22
2022-10-21T00:43:30.174Z,97702.44
2022-10-21T00:46:06.224Z,97699.47
2022-10-21T00:48:39.991Z,97682.13
2022-10-21T00:51:13.139Z,97671.75
2022-10-21T00:53:49.931Z,97669.50
2022-10-21T00:56:24.684Z,97660.72
2022-10-21T00:58:57.556Z,97664.00
2022-10-21T01:01:27.906Z,97665.72
2022-10-21T01:03:58.096Z,97656.84
2022-10-21T01:06:29.556Z,97666.41
2022-10-21T01:09:04.489Z,97656.81
2022-10-21T01:11:44.321Z,97652.06
2022-10-21T01:14:35.288Z,97625.78
2022-10-21T01:17:26.542Z,97623.00
2022-10-21T01:20:48.573Z,97605.06
2022-10-21T01:23:53.007Z,97585.84
2022-10-21T01:27:08.143Z,97574.25
2022-10-21T01:30:32.024Z,97589.72
2022-10-21T01:33:30.165Z,97586.94
2022-10-21T01:36:11.337Z,97583.66
2022-10-21T01:38:46.571Z,97583.41
2022-10-21T01:41:27.734Z,97577.38
2022-10-21T01:44:08.501Z,97592.03
2022-10-21T01:46:46.534Z,97607.94
2022-10-21T01:49:26.772Z,97598.34
2022-10-21T01:51:57.736Z,97598.56
2022-10-21T01:54:32.107Z,97594.31
2022-10-21T01:57:04.833Z,97585.97
2022-10-21T01:59:35.976Z,97588.53
2022-10-21T02:02:09.926Z,97578.69
2022-10-21T02:04:45.843Z,97580.69
2022-10-21T02:07:16.483Z,97570.03
2022-10-21T02:09:46.702Z,97563.75
2022-10-21T02:12:18.518Z,97571.09
2022-10-21T02:14:54.362Z,97571.09
2022-10-21T02:17:26.228Z,97566.03
2022-10-21T02:20:04.084Z,97556.91
2022-10-21T02:22:35.876Z,97547.53
2022-10-21T02:25:13.518Z,97549.53
2022-10-21T02:27:43.732Z,97551.75
2022-10-21T02:30:14.475Z,97562.41
2022-10-21T02:32:53.873Z,97587.44
2022-10-21T02:35:37.617Z,97583.56
2022-10-21T02:38:17.960Z,97594.84
2022-10-21T02:40:53.149Z,97596.09
2022-10-21T02:43:29.245Z,97591.78
2022-10-21T02:46:04.634Z,97588.28
2022-10-21T02:48:36.796Z,97585.25
2022-10-21T02:51:11.071Z,97586.00
2022-10-21T02:53:41.155Z,97581.75
2022-10-21T02:56:11.866Z,97582.06
2022-10-21T02:58:42.057Z,97573.97
2022-10-21T03:01:12.249Z,97570.91
2022-10-21T03:03:42.480Z,97564.56
2022-10-21T03:06:15.450Z,97557.41
2022-10-21T03:08:45.569Z,97561.47
2022-10-21T03:11:16.300Z,97557.69
2022-10-21T03:13:46.491Z,97539.75
2022-10-21T03:16:16.616Z,97540.75
2022-10-21T03:18:46.993Z,97535.38
2022-10-21T03:21:19.778Z,97518.97
2022-10-21T03:23:49.866Z,97519.97
2022-10-21T03:26:19.832Z,97527.03
2022-10-21T03:28:49.964Z,97527.81
2022-10-21T03:31:20.041Z,97539.22
2022-10-21T03:33:50.211Z,97540.00
2022-10-21T03:36:23.852Z,97543.72
2022-10-21T03:38:53.980Z,97550.06
2022-10-21T03:41:24.012Z,97557.13
2022-10-21T03:43:54.069Z,97554.59
2022-10-21T03:46:24.097Z,97541.66
2022-10-21T03:48:54.144Z,97539.44
2022-10-21T03:51:26.863Z,97533.63
2022-10-21T03:53:57.013Z,97534.38
2022-10-21T03:56:27.330Z,97533.16
2022-10-21T03:58:58.780Z,97522.56
2022-10-21T04:01:29.353Z,97515.66
2022-10-21T04:03:59.609Z,97505.81
2022-10-21T04:06:32.262Z,97512.09
2022-10-21T04:09:02.434Z,97504.69
2022-10-21T04:11:32.479Z,97495.28
2022-10-21T04:14:02.774Z,97494.69
2022-10-21T04:16:33.841Z,97491.75
2022-10-21T04:19:04.407Z,97490.31
2022-10-21T04:21:37.112Z,97484.03
2022-10-21T04:24:08.311Z,97486.31
2022-10-21T04:26:38.388Z,97485.31
2022-10-21T04:29:08.525Z,97481.47
2022-10-21T04:31:38.900Z,97486.06
2022-10-21T04:34:09.038Z,97484.53
2022-10-21T04:36:41.695Z,97485.59
2022-10-21T04:39:11.806Z,97486.78
2022-10-21T04:41:41.913Z,97463.31
2022-10-21T04:44:11.961Z,97455.75
2022-10-21T04:46:41.980Z,97463.59
2022-10-21T04:49:12.094Z,97466.81
2022-10-21T04:51:44.689Z,97456.91
2022-10-21T04:54:14.907Z,97453.38
2022-10-21T04:56:45.806Z,97444.25
2022-10-21T04:59:15.985Z,97441.94
2022-10-21T05:01:46.056Z,97444.72
2022-10-21T05:04:16.114Z,97425.25
2022-10-21T05:06:48.743Z,97427.81
2022-10-21T05:09:19.169Z,97435.31
2022-10-21T05:11:49.276Z,97447.56
2022-10-21T05:14:22.531Z,97445.25
2022-10-21T05:16:53.088Z,97442.72
2022-10-21T05:19:24.750Z,97456.44
2022-10-21T05:21:59.300Z,97461.13
2022-10-21T05:24:29.478Z,97470.16
2022-10-21T05:26:59.661Z,97464.19
2022-10-21T05:29:29.708Z,97460.94
2022-10-21T05:31:59.716Z,97465.16
2022-10-21T05:34:29.823Z,97452.56
2022-10-21T05:37:02.694Z,97452.56
2022-10-21T05:39:32.853Z,97457.09
2022-10-21T05:42:02.928Z,97452.59
2022-10-21T05:44:33.011Z,97457.88
2022-10-21T05:47:03.034Z,97459.59
2022-10-21T05:49:33.228Z,97461.91
2022-10-21T05:52:05.865Z,97458.91
2022-10-21T05:54:35.923Z,97451.28
2022-10-21T05:57:06.178Z,97464.63
2022-10-21T05:59:36.294Z,97473.44
2022-10-21T06:02:06.370Z,97471.66
2022-10-21T06:04:38.743Z,97463.53
2022-10-21T06:07:11.753Z,97472.28
2022-10-21T06:09:41.781Z,97462.16
2022-10-21T06:12:11.870Z,97463.03
2022-10-21T06:14:41.881Z,97474.47
2022-10-21T06:17:12.096Z,97474.56
2022-10-21T06:19:44.857Z,97473.88
2022-10-21T06:22:20.296Z,97463.03
2022-10-21T06:24:50.890Z,97460.53
2022-10-21T06:27:21.308Z,97463.31
2022-10-21T06:29:51.415Z,97477.72
2022-10-21T06:32:21.462Z,97478.31
2022-10-21T06:34:51.507Z,97481.69
2022-10-21T06:37:24.178Z,97479.00
2022-10-21T06:39:54.249Z,97476.28
2022-10-21T06:42:24.287Z,97474.53
2022-10-21T06:44:56.706Z,97464.78
2022-10-21T06:47:29.530Z,97455.47
2022-10-21T06:50:03.084Z,97463.31
2022-10-21T06:52:36.027Z,97469.16
2022-10-21T06:55:06.511Z,97466.13
2022-10-21T06:57:37.267Z,97457.56
2022-10-21T07:00:08.793Z,97462.47
2022-10-21T07:02:39.174Z,97456.91
2022-10-21T07:05:10.751Z,97461.75
2022-10-21T07:07:43.550Z,97452.38
2022-10-21T07:10:13.724Z,97454.97
2022-10-21T07:12:43.736Z,97465.16
2022-10-21T07:15:14.896Z,97466.47
2022-10-21T07:17:45.059Z,97461.50
2022-10-21T07:20:15.098Z,97466.88
2022-10-21T07:22:47.714Z,97455.00
2022-10-21T07:25:18.000Z,97447.66
2022-10-21T07:27:48.455Z,97434.47
2022-10-21T07:30:19.116Z,97436.53
2022-10-21T07:32:49.243Z,97438.53
2022-10-21T07:35:19.401Z,97445.88
2022-10-21T07:37:52.046Z,97444.34
2022-10-21T07:40:22.584Z,97453.50
2022-10-21T07:42:52.953Z,97437.28
2022-10-21T07:45:23.068Z,97437.78
2022-10-21T07:47:53.299Z,97429.91
2022-10-21T07:50:23.732Z,97428.94
2022-10-21T07:53:10.250Z,97430.44
2022-10-21T07:55:42.391Z,97414.19
2022-10-21T07:58:12.718Z,97422.09
2022-10-21T08:00:46.837Z,97418.44
2022-10-21T08:03:17.005Z,97412.00
2022-10-21T08:05:47.048Z,97418.63
2022-10-21T08:08:21.813Z,97404.50
2022-10-21T08:10:52.668Z,97406.09
2022-10-21T08:13:23.097Z,97397.00
2022-10-21T08:15:56.974Z,97398.03
2022-10-21T08:18:27.640Z,97401.97
2022-10-21T08:20:58.319Z,97395.09
2022-10-21T08:23:30.774Z,97391.81
2022-10-21T08:26:03.207Z,97383.19
2022-10-21T08:28:34.777Z,97373.81
2022-10-21T08:31:10.919Z,97377.72
2022-10-21T08:33:41.834Z,97368.75
2022-10-21T08:36:15.242Z,97373.50
2022-10-21T08:38:48.762Z,97361.63
2022-10-21T08:41:43.047Z,97357.91
2022-10-21T08:44:27.271Z,97365.31
2022-10-21T08:47:06.688Z,97358.19
2022-10-21T08:49:49.092Z,97349.44
2022-10-21T08:52:25.372Z,97354.97
2022-10-21T08:55:02.971Z,97352.66
2022-10-21T08:57:37.647Z,97353.28
2022-10-21T09:00:18.688Z,97346.72
2022-10-21T09:03:04.328Z,97350.22
2022-10-21T09:06:02.367Z,97343.84
2022-10-21T09:08:40.719Z,97351.97
2022-10-21T09:11:28.063Z,97348.75
2022-10-21T09:14:43.736Z,97346.44
2022-10-21T09:17:31.087Z,97335.22
2022-10-21T09:20:16.471Z,97342.16
2022-10-21T09:22:59.058Z,97346.66
2022-10-21T09:25:36.158Z,97343.88
2022-10-21T09:28:15.152Z,97341.63
2022-10-21T09:30:48.057Z,97355.59
2022-10-21T09:33:25.035Z,97365.63
2022-10-21T09:36:00.552Z,97358.66
2022-10-21T09:38:39.764Z,97370.50
2022-10-21T09:41:17.537Z,97370.75
2022-10-21T09:43:51.734Z,97364.50
2022-10-21T09:46:22.886Z,97371.03
2022-10-21T09:51:47.855Z,97368.56
2022-10-21T09:54:23.399Z,97376.66
2022-10-21T09:56:59.297Z,97383.47
2022-10-21T09:59:33.585Z,97387.44
2022-10-21T10:02:11.222Z,97382.00
2022-10-21T10:04:41.493Z,97382.78
2022-10-21T10:07:30.488Z,97385.28
2022-10-21T10:10:00.639Z,97386.97
2022-10-21T10:12:32.714Z,97391.72
2022-10-21T10:15:30.684Z,97386.34
2022-10-21T10:18:03.533Z,97384.84
2022-10-21T10:20:33.787Z,97399.19
2022-10-21T10:23:17.876Z,97404.63
2022-10-21T10:25:54.342Z,97387.53
2022-10-21T10:28:27.939Z,97391.25
2022-10-21T10:31:00.802Z,97398.97
2022-10-21T10:33:35.588Z,97401.81
2022-10-21T10:36:09.601Z,97399.94
2022-10-21T10:38:45.250Z,97399.59
2022-10-21T10:41:18.861Z,97406.09
2022-10-21T10:43:51.876Z,97398.41
2022-10-21T10:46:30.474Z,97407.88
2022-10-21T10:49:07.645Z,97400.91
2022-10-21T10:51:40.669Z,97398.91
2022-10-21T10:54:24.321Z,97397.56
2022-10-21T10:56:59.202Z,97393.34
2022-10-21T10:59:38.176Z,97385.44
2022-10-21T11:02:26.442Z,97380.94
2022-10-21T11:05:21.410Z,97380.78
2022-10-21T11:07:54.374Z,97382.69
2022-10-21T11:10:37.047Z,97383.34
2022-10-21T11:13:14.894Z,97382.59
2022-10-21T11:16:03.097Z,97374.41
2022-10-21T11:18:41.359Z,97380.72
2022-10-21T11:21:29.358Z,97381.59
2022-10-21T11:24:26.223Z,97372.97
2022-10-21T11:27:03.337Z,97369.97
2022-10-21T11:29:48.831Z,97372.13
2022-10-21T11:32:47.926Z,97370.84
2022-10-21T11:35:44.445Z,97368.47
2022-10-21T11:38:33.259Z,97373.75
2022-10-21T11:41:21.899Z,97377.06
2022-10-21T11:44:10.000Z,97372.19
2022-10-21T11:46:49.422Z,97369.47
2022-10-21T11:49:44.789Z,97377.66
2022-10-21T11:52:30.337Z,97374.06
2022-10-21T11:55:35.438Z,97367.69
2022-10-21T11:58:30.689Z,97375.44
2022-10-21T12:01:24.097Z,97369.41
2022-10-21T12:04:30.437Z,97372.22
2022-10-21T12:07:19.431Z,97361.09
2022-10-21T12:09:56.684Z,97367.53
2022-10-21T12:12:34.515Z,97363.56
2022-10-21T12:15:09.559Z,97358.47
2022-10-21T12:17:40.307Z,97358.47
2022-10-21T12:20:23.898Z,97368.03
2022-10-21T12:23:03.345Z,97353.41
2022-10-21T12:25:43.149Z,97355.22
2022-10-21T12:28:25.477Z,97369.00
2022-10-21T12:31:03.669Z,97367.28
2022-10-21T12:33:41.660Z,97370.00
2022-10-21T12:36:22.215Z,97367.81
2022-10-21T12:38:56.833Z,97366.00
2022-10-21T12:41:34.623Z,97367.81
2022-10-21T12:44:21.688Z,97368.06
2022-10-21T12:46:55.391Z,97364.06
2022-10-21T12:49:32.498Z,97366.84
2022-10-21T12:52:12.652Z,97362.06
2022-10-21T12:54:57.124Z,97370.53
2022-10-21T12:57:32.016Z,97368.16
2022-10-21T13:00:55.434Z,97360.78
2022-10-21T13:03:58.176Z,97359.94
2022-10-21T13:06:54.841Z,97372.19
2022-10-21T13:09:43.569Z,97350.09
2022-10-21T13:12:29.705Z,97354.56
2022-10-21T13:15:02.324Z,97353.88
2022-10-21T13:17:55.290Z,97345.56
2022-10-21T13:21:00.964Z,97337.75
2022-10-21T13:23:40.053Z,97323.38
2022-10-21T13:26:21.630Z,97328.25
2022-10-21T13:29:24.824Z,97345.59
2022-10-21T13:32:15.249Z,97349.41
2022-10-21T13:35:02.448Z,97354.88
2022-10-21T13:37:39.137Z,97345.56
2022-10-21T13:40:18.375Z,97357.00
2022-10-21T13:42:57.720Z,97364.19
2022-10-21T13:45:32.322Z,97366.16
2022-10-21T13:48:09.116Z,97371.19
2022-10-21T13:50:43.626Z,97373.78
2022-10-21T13:53:36.473Z,97370.63
2022-10-21T13:56:10.684Z,97374.75
2022-10-21T13:58:42.353Z,97375.84
2022-10-21T14:01:15.191Z,97379.19
2022-10-21T14:03:45.782Z,97378.53
2022-10-21T14:06:30.819Z,97390.16
2022-10-21T14:09:08.276Z,97394.50
2022-10-21T14:11:46.776Z,97394.50
2022-10-21T14:14:20.703Z,97402.44
2022-10-21T14:16:55.354Z,97405.63
2022-10-21T14:19:29.346Z,97409.97
2022-10-21T14:22:03.178Z,97404.44
2022-10-21T14:24:43.488Z,97411.13
2022-10-21T14:27:17.743Z,97409.84
2022-10-21T14:29:48.880Z,97407.59
2022-10-21T14:32:22.360Z,97407.84
2022-10-21T14:35:24.319Z,97408.13
2022-10-21T14:37:57.861Z,97410.16
2022-10-21T14:40:34.636Z,97396.97
2022-10-21T14:43:08.723Z,97398.50
2022-10-21T14:45:48.127Z,97394.19
2022-10-21T14:48:25.092Z,97389.38
2022-10-21T14:50:59.925Z,97384.59
2022-10-21T14:53:33.393Z,97381.56
2022-10-21T14:56:09.360Z,97375.72
2022-10-21T14:58:41.376Z,97376.00
2022-10-21T15:01:17.649Z,97370.91
2022-10-21T15:03:50.208Z,97363.56
2022-10-21T15:06:23.817Z,97352.69
2022-10-21T15:09:09.922Z,97360.28
2022-10-21T15:11:45.806Z,97344.09
2022-10-21T15:14:33.143Z,97360.03
2022-10-21T15:17:06.934Z,97360.53
2022-10-21T15:19:47.718Z,97373.47
2022-10-21T15:22:38.097Z,97369.91
2022-10-21T15:25:12.208Z,97373.47
2022-10-21T15:27:46.045Z,97377.50
2022-10-21T15:30:23.368Z,97376.50
2022-10-21T15:32:55.193Z,97376.50
2022-10-21T15:35:26.904Z,97371.19
2022-10-21T15:37:57.549Z,97367.63
2022-10-21T15:40:27.720Z,97366.59
2022-10-21T15:43:00.502Z,97366.31
2022-10-21T15:45:30.773Z,97362.00
2022-10-21T15:48:00.860Z,97366.31
2022-10-21T15:50:30.879Z,97359.47
2022-10-21T15:53:00.928Z,97354.66
2022-10-21T15:55:30.916Z,97365.28
2022-10-21T15:58:03.524Z,97364.78
2022-10-21T16:00:40.060Z,97379.47
2022-10-21T16:03:11.554Z,97379.78
2022-10-21T16:05:42.006Z,97372.91
2022-10-21T16:08:15.381Z,97373.69
2022-10-21T16:10:47.939Z,97382.56
2022-10-21T16:13:20.712Z,97387.88
2022-10-21T16:15:50.894Z,97392.69
2022-10-21T16:18:21.053Z,97389.91
2022-10-21T16:20:51.062Z,97388.38
2022-10-21T16:23:21.114Z,97388.16
2022-10-21T16:25:51.235Z,97393.22
2022-10-21T16:28:23.951Z,97396.00
2022-10-21T16:30:54.104Z,97391.19
2022-10-21T16:33:24.391Z,97386.88
2022-10-21T16:35:54.541Z,97389.16
2022-10-21T16:38:24.636Z,97389.94
2022-10-21T16:40:54.829Z,97384.84
2022-10-21T16:43:27.518Z,97388.41
2022-10-21T16:45:57.632Z,97393.69
2022-10-21T16:48:27.904Z,97387.38
2022-10-21T16:50:58.110Z,97392.94
2022-10-21T16:53:29.195Z,97388.63
2022-10-21T16:55:59.335Z,97394.94
2022-10-21T16:58:35.036Z,97390.41
2022-10-21T17:01:06.654Z,97397.00
2022-10-21T17:03:37.324Z,97397.00
2022-10-21T17:06:07.565Z,97409.13
2022-10-21T17:08:37.666Z,97406.09
2022-10-21T17:11:08.117Z,97400.50
2022-10-21T17:13:40.881Z,97398.22
2022-10-21T17:16:12.429Z,97405.56
2022-10-21T17:18:43.168Z,97414.69
2022-10-21T17:21:23.441Z,97408.88
2022-10-21T17:23:55.220Z,97414.16
2022-10-21T17:26:26.073Z,97416.94
2022-10-21T17:28:58.946Z,97417.72
2022-10-21T17:31:32.481Z,97422.03
2022-10-21T17:34:07.476Z,97422.28
2022-10-21T17:36:38.980Z,97425.06
2022-10-21T17:39:09.078Z,97429.34
2022-10-21T17:41:39.182Z,97432.66
2022-10-21T17:44:14.114Z,97439.00
2022-10-21T17:46:46.105Z,97442.53
2022-10-21T17:49:16.686Z,97443.31
2022-10-21T17:51:46.863Z,97439.25
2022-10-21T17:54:16.856Z,97436.22
2022-10-21T17:56:47.043Z,97439.75
2022-10-21T17:59:19.993Z,97446.09
2022-10-21T18:01:50.190Z,97454.97
2022-10-21T18:04:20.305Z,97444.56
2022-10-21T18:06:50.477Z,97443.28
2022-10-21T18:09:20.712Z,97439.50
2022-10-21T18:11:50.981Z,97436.22
2022-10-21T18:14:23.852Z,97431.63
2022-10-21T18:16:54.122Z,97429.88
2022-10-21T18:19:24.254Z,97429.38
2022-10-21T18:21:54.304Z,97425.06
2022-10-21T18:24:24.684Z,97426.81
2022-10-21T18:26:54.672Z,97428.63
2022-10-21T18:29:27.410Z,97417.72
2022-10-21T18:31:57.573Z,97399.69
2022-10-21T18:34:27.898Z,97396.88
2022-10-21T18:36:59.678Z,97391.31
2022-10-21T18:39:30.268Z,97389.56
2022-10-21T18:42:00.420Z,97373.34
2022-10-21T18:44:33.141Z,97383.22
2022-10-21T18:47:03.325Z,97377.63
2022-10-21T18:49:33.521Z,97385.25
2022-10-21T18:52:03.785Z,97376.13
2022-10-21T18:54:33.889Z,97383.47
2022-10-21T18:57:06.652Z,97373.09
2022-10-21T18:59:39.721Z,97381.94
2022-10-21T19:02:11.703Z,97392.59
2022-10-21T19:04:44.186Z,97396.44
2022-10-21T19:07:14.252Z,97394.41
2022-10-21T19:09:44.337Z,97389.34
2022-10-21T19:12:17.372Z,97390.09
2022-10-21T19:14:52.502Z,97393.13
2022-10-21T19:17:22.638Z,97397.69
2022-10-21T19:19:53.473Z,97392.88
2022-10-21T19:22:23.660Z,97397.19
2022-10-21T19:24:53.804Z,97396.66
2022-10-21T19:27:24.575Z,97401.47
2022-10-21T19:29:57.295Z,97397.19
2022-10-21T19:32:27.467Z,97393.34
2022-10-21T19:34:57.569Z,97393.63
2022-10-21T19:37:27.625Z,97393.84
2022-10-21T19:39:57.789Z,97408.03
2022-10-21T19:42:27.957Z,97413.91
2022-10-21T19:45:00.666Z,97408.06
2022-10-21T19:47:31.354Z,97416.16
2022-10-21T19:50:02.001Z,97403.22
2022-10-21T19:52:32.287Z,97407.78
2022-10-21T19:55:02.474Z,97410.34
2022-10-21T19:57:32.724Z,97421.22
2022-10-21T20:00:07.295Z,97421.72
2022-10-21T20:02:42.095Z,97420.47
2022-10-21T20:05:12.859Z,97427.81
2022-10-21T20:07:43.208Z,97433.13
2022-10-21T20:10:14.617Z,97438.22
2022-10-21T20:12:45.009Z,97433.41
2022-10-21T20:15:17.986Z,97439.78
2022-10-21T20:17:48.218Z,97442.28
2022-10-21T20:20:18.616Z,97446.59
2022-10-21T20:22:48.732Z,97449.84
2022-10-21T20:25:21.833Z,97453.91
2022-10-21T20:27:52.051Z,97449.34
2022-10-21T20:30:24.715Z,97440.69
2022-10-21T20:32:54.808Z,97442.69
2022-10-21T20:35:25.010Z,97449.53
2022-10-21T20:37:55.280Z,97439.66
2022-10-21T20:40:27.251Z,97438.13
2022-10-21T20:42:57.320Z,97444.25
2022-10-21T20:45:30.110Z,97438.41
2022-10-21T20:48:00.456Z,97428.22
2022-10-21T20:50:31.082Z,97431.25
2022-10-21T20:53:01.130Z,97426.94
2022-10-21T20:55:31.224Z,97433.00
2022-10-21T20:58:01.294Z,97437.88
2022-10-21T21:00:33.949Z,97428.22
2022-10-21T21:03:03.984Z,97411.47
2022-10-21T21:05:36.582Z,97421.13
2022-10-21T21:08:09.501Z,97421.84
2022-10-21T21:10:39.713Z,97421.81
2022-10-21T21:13:09.961Z,97429.94
2022-10-21T21:15:42.735Z,97435.53
2022-10-21T21:18:14.195Z,97438.06
2022-10-21T21:20:44.389Z,97447.69
2022-10-21T21:23:14.467Z,97442.84
2022-10-21T21:25:44.621Z,97454.72
2022-10-21T21:28:14.842Z,97448.91
2022-10-21T21:30:54.750Z,97453.97
2022-10-21T21:33:24.909Z,97464.13
2022-10-21T21:35:55.407Z,97472.75
2022-10-21T21:38:25.652Z,97457.75
2022-10-21T21:40:55.904Z,97452.41
2022-10-21T21:43:26.162Z,97451.59
2022-10-21T21:45:59.566Z,97440.13
2022-10-21T21:48:30.246Z,97431.03
2022-10-21T21:51:04.426Z,97431.78
2022-10-21T21:53:34.709Z,97430.56
2022-10-21T21:56:05.565Z,97438.25
2022-10-21T21:58:35.426Z,97448.91
2022-10-21T22:01:14.793Z,97445.59
2022-10-21T22:03:47.090Z,97455.44
2022-10-21T22:06:18.195Z,97466.09
2022-10-21T22:08:49.160Z,97460.03
2022-10-21T22:11:22.089Z,97445.81
2022-10-21T22:13:53.227Z,97441.50
2022-10-21T22:16:30.373Z,97428.31
2022-10-21T22:19:02.921Z,97436.69
2022-10-21T22:21:34.760Z,97436.22
2022-10-21T22:24:04.837Z,97426.81
2022-10-21T22:26:35.060Z,97420.97
2022-10-21T22:29:05.180Z,97426.56
2022-10-21T22:31:37.879Z,97431.16
2022-10-21T22:34:11.048Z,97418.97
2022-10-21T22:36:42.309Z,97423.81
2022-10-21T22:39:12.328Z,97427.31
2022-10-21T22:41:42.412Z,97410.03
2022-10-21T22:44:16.640Z,97400.94
2022-10-21T22:46:49.338Z,97397.41
2022-10-21T22:49:19.810Z,97388.28
2022-10-21T22:54:46.414Z,97373.00
2022-10-21T22:57:10.482Z,97367.47
2022-10-21T22:59:40.505Z,97365.75
2022-10-21T23:02:13.342Z,97367.34
2022-10-21T23:04:43.443Z,97362.53
2022-10-21T23:07:13.490Z,97372.63
2022-10-21T23:09:43.581Z,97380.72
2022-10-21T23:12:13.646Z,97388.34
2022-10-21T23:14:43.705Z,97393.88
2022-10-21T23:17:16.492Z,97401.72
2022-10-21T23:19:46.925Z,97404.50
2022-10-21T23:22:17.283Z,97402.22
2022-10-21T23:24:47.615Z,97398.66
2022-10-21T23:27:17.748Z,97393.56
2022-10-21T23:29:47.867Z,97405.25
2022-10-21T23:32:20.632Z,97412.09
2022-10-21T23:34:50.842Z,97423.81
2022-10-21T23:40:13.297Z,97428.91
2022-10-21T23:42:43.665Z,97428.91
2022-10-21T23:45:14.489Z,97421.06
2022-10-21T23:47:47.048Z,97421.06
2022-10-21T23:50:17.462Z,97424.63
2022-10-21T23:52:47.812Z,97408.13
2022-10-21T23:55:18.210Z,97414.47
2022-10-21T23:57:48.494Z,97414.22
